Time;durP1;ratioP1;P1;durP2;ratioP2;P2;SDS_P1;SDS_P2;PMS_P1;PMS_P2;Temp;Humidity;BMP_temperature;BMP_pressure;BME280_temperature;BME280_humidity;BME280_pressure;Samples;Min_cycle;Max_cycle;Signal;HPM_P1;HPM_P2
2021/12/05 00:24:05;;;;;;;49.40;21.52;;;;;;;;;;5081516;28;20129;-78
2021/12/05 00:26:31;;;;;;;52.92;21.05;;;;;;;;;;5079369;28;20028;-78
2021/12/05 00:29:21;;;;;;;55.40;23.17;;;;;;;;;;5096605;28;20115;-78
2021/12/05 00:55:57;;;;;;;48.85;21.25;;;;;;;;;;5096187;28;20118;-78
2021/12/05 01:09:16;;;;;;;50.45;19.08;;;;;;;;;;5095958;28;20376;-78
2021/12/05 01:14:36;;;;;;;42.85;20.40;;;;;;;;;;5096342;28;20035;-78
2021/12/05 01:17:02;;;;;;;47.75;20.63;;;;;;;;;;5095779;28;20082;-78
2021/12/05 01:19:31;;;;;;;45.40;21.52;;;;;;;;;;5095478;28;20031;-78
2021/12/05 01:21:58;;;;;;;41.80;19.55;;;;;;;;;;5095646;28;20024;-78
2021/12/05 01:32:19;;;;;;;45.72;20.55;;;;;;;;;;5096029;28;20029;-78
2021/12/05 01:37:24;;;;;;;42.28;19.35;;;;;;;;;;5095380;28;20035;-78
2021/12/05 02:01:50;;;;;;;49.60;22.10;;;;;;;;;;5094146;28;20078;-78
2021/12/05 02:31:59;;;;;;;58.53;22.45;;;;;;;;;;5094520;28;20085;-78
2021/12/05 02:37:10;;;;;;;60.70;23.02;;;;;;;;;;5094680;28;20063;-78
2021/12/05 02:39:50;;;;;;;59.20;22.75;;;;;;;;;;5094125;28;20134;-78
2021/12/05 02:42:32;;;;;;;57.63;22.73;;;;;;;;;;5094427;28;20081;-78
2021/12/05 02:44:59;;;;;;;61.70;23.20;;;;;;;;;;5094890;28;20028;-78
2021/12/05 02:47:26;;;;;;;62.70;25.08;;;;;;;;;;5076232;28;20027;-78
2021/12/05 02:49:52;;;;;;;61.97;23.65;;;;;;;;;;5094141;28;20024;-78
2021/12/05 02:52:25;;;;;;;59.60;22.23;;;;;;;;;;5094287;28;20024;-78
2021/12/05 02:54:54;;;;;;;62.13;24.05;;;;;;;;;;5094242;28;20073;-78
2021/12/05 02:57:31;;;;;;;72.68;26.75;;;;;;;;;;5094221;28;20434;-78
2021/12/05 02:59:58;;;;;;;63.78;25.23;;;;;;;;;;5093827;28;20446;-78
2021/12/05 03:02:37;;;;;;;63.58;24.27;;;;;;;;;;5094047;28;20020;-78
2021/12/05 03:05:06;;;;;;;63.03;24.33;;;;;;;;;;5077980;28;20044;-77
2021/12/05 03:07:38;;;;;;;65.88;22.88;;;;;;;;;;5094098;28;20065;-78
2021/12/05 03:10:03;;;;;;;65.32;23.05;;;;;;;;;;5094062;28;20035;-78
2021/12/05 03:12:33;;;;;;;57.40;21.55;;;;;;;;;;5077393;28;20032;-77
2021/12/05 03:15:05;;;;;;;69.93;24.55;;;;;;;;;;5097981;28;20020;-78
2021/12/05 03:17:30;;;;;;;66.25;23.83;;;;;;;;;;5098446;28;20036;-78
2021/12/05 03:19:56;;;;;;;59.00;22.40;;;;;;;;;;5098000;28;20028;-78
2021/12/05 03:22:21;;;;;;;77.63;26.10;;;;;;;;;;5097974;28;20081;-78
2021/12/05 03:24:48;;;;;;;78.90;25.92;;;;;;;;;;5098014;28;20464;-78
2021/12/05 03:27:14;;;;;;;71.32;25.15;;;;;;;;;;5098021;28;20107;-78
2021/12/05 03:29:39;;;;;;;63.10;23.52;;;;;;;;;;5079462;28;20075;-78
2021/12/05 03:32:05;;;;;;;67.22;23.70;;;;;;;;;;5097876;28;20077;-78
2021/12/05 03:34:30;;;;;;;67.75;24.35;;;;;;;;;;5097891;28;20441;-78
2021/12/05 03:36:56;;;;;;;65.82;24.98;;;;;;;;;;5079775;28;20042;-78
2021/12/05 03:39:22;;;;;;;60.10;24.02;;;;;;;;;;5079578;28;20402;-78
2021/12/05 03:41:47;;;;;;;61.75;23.83;;;;;;;;;;5062985;28;20031;-78
2021/12/05 03:44:14;;;;;;;59.30;23.42;;;;;;;;;;5097373;28;20024;-78
2021/12/05 03:46:40;;;;;;;58.63;22.48;;;;;;;;;;5097676;28;20028;-78
2021/12/05 03:49:08;;;;;;;62.97;24.05;;;;;;;;;;5097610;28;20119;-78
2021/12/05 03:51:35;;;;;;;60.50;23.50;;;;;;;;;;5097460;28;20028;-78
2021/12/05 03:54:00;;;;;;;68.85;26.13;;;;;;;;;;5097261;28;20024;-78
2021/12/05 03:56:26;;;;;;;59.13;24.55;;;;;;;;;;5097362;28;20043;-77
2021/12/05 03:58:52;;;;;;;65.30;23.25;;;;;;;;;;5097111;28;20028;-78
2021/12/05 04:01:17;;;;;;;68.30;26.95;;;;;;;;;;5097417;28;20433;-78
2021/12/05 04:03:44;;;;;;;67.97;25.05;;;;;;;;;;5079299;28;20032;-78
2021/12/05 04:06:11;;;;;;;61.38;24.40;;;;;;;;;;5097317;28;20027;-78
2021/12/05 04:08:39;;;;;;;72.15;25.08;;;;;;;;;;5097177;28;20043;-78
2021/12/05 04:11:07;;;;;;;71.13;25.17;;;;;;;;;;5097321;28;20042;-77
2021/12/05 04:13:32;;;;;;;70.50;25.48;;;;;;;;;;5096930;28;20028;-78
2021/12/05 04:16:00;;;;;;;74.63;25.50;;;;;;;;;;5097205;28;20089;-78
2021/12/05 04:18:26;;;;;;;68.47;26.00;;;;;;;;;;5097035;28;20042;-78
2021/12/05 04:20:51;;;;;;;71.30;25.42;;;;;;;;;;5096957;28;20497;-76
2021/12/05 04:23:16;;;;;;;60.55;24.00;;;;;;;;;;5096595;28;20081;-76
2021/12/05 04:25:42;;;;;;;74.88;26.40;;;;;;;;;;5096284;28;20028;-77
2021/12/05 04:28:09;;;;;;;67.70;26.77;;;;;;;;;;5096870;28;20464;-77
2021/12/05 04:30:35;;;;;;;64.07;25.00;;;;;;;;;;5078665;28;20040;-76
2021/12/05 04:33:00;;;;;;;68.53;24.45;;;;;;;;;;5078556;28;20038;-76
2021/12/05 04:35:26;;;;;;;65.72;23.20;;;;;;;;;;5096692;28;20031;-77
2021/12/05 04:37:51;;;;;;;69.35;26.38;;;;;;;;;;5096635;28;20028;-77
2021/12/05 04:40:17;;;;;;;62.60;24.85;;;;;;;;;;5096573;28;20047;-77
2021/12/05 04:42:42;;;;;;;65.93;25.85;;;;;;;;;;5096262;28;20028;-76
2021/12/05 04:45:14;;;;;;;64.53;25.50;;;;;;;;;;5096493;28;20024;-77
2021/12/05 04:47:39;;;;;;;68.35;26.90;;;;;;;;;;5096486;28;20032;-77
2021/12/05 04:50:05;;;;;;;73.63;27.40;;;;;;;;;;5096328;28;20509;-77
2021/12/05 04:52:31;;;;;;;63.33;24.95;;;;;;;;;;5096686;28;20055;-77
2021/12/05 04:54:56;;;;;;;68.30;27.38;;;;;;;;;;5096240;28;20062;-76
2021/12/05 04:57:22;;;;;;;64.40;26.13;;;;;;;;;;5095921;28;20036;-77
2021/12/05 04:59:50;;;;;;;66.80;25.98;;;;;;;;;;5077920;28;20044;-78
2021/12/05 05:02:16;;;;;;;59.05;24.30;;;;;;;;;;5078152;28;20036;-77
2021/12/05 05:04:45;;;;;;;65.57;24.83;;;;;;;;;;5078088;28;20418;-77
2021/12/05 05:07:17;;;;;;;61.45;24.45;;;;;;;;;;5078831;28;20050;-77
2021/12/05 05:09:44;;;;;;;65.72;26.33;;;;;;;;;;5095960;28;20115;-77
2021/12/05 05:12:10;;;;;;;62.40;24.75;;;;;;;;;;5095646;28;20020;-75
2021/12/05 05:14:35;;;;;;;64.88;25.30;;;;;;;;;;5095902;28;20073;-76
2021/12/05 05:17:01;;;;;;;65.50;24.92;;;;;;;;;;5061170;28;20070;-77
2021/12/05 05:19:32;;;;;;;68.40;26.92;;;;;;;;;;5095885;28;20368;-78
2021/12/05 05:25:10;;;;;;;69.18;25.48;;;;;;;;;;5079169;28;20445;-79
2021/12/05 05:48:33;;;;;;;53.65;22.50;;;;;;;;;;5095831;28;20071;-77
2021/12/05 05:51:00;;;;;;;71.60;26.73;;;;;;;;;;5095200;28;20020;-77
2021/12/05 05:53:25;;;;;;;72.18;27.75;;;;;;;;;;5095098;28;20552;-77
2021/12/05 05:55:53;;;;;;;70.00;26.48;;;;;;;;;;5076964;28;20103;-78
2021/12/05 05:58:22;;;;;;;68.63;25.98;;;;;;;;;;5077584;28;20043;-78
2021/12/05 06:03:22;;;;;;;65.88;24.10;;;;;;;;;;5095704;28;20134;-78
2021/12/05 06:06:08;;;;;;;69.50;27.50;;;;;;;;;;5095074;28;20020;-77
2021/12/05 06:08:35;;;;;;;69.03;27.52;;;;;;;;;;5094538;28;20078;-78
2021/12/05 06:11:03;;;;;;;76.22;28.30;;;;;;;;;;5094822;28;20111;-78
2021/12/05 06:13:29;;;;;;;68.85;27.65;;;;;;;;;;5098525;28;20024;-78
2021/12/05 06:15:55;;;;;;;62.83;25.15;;;;;;;;;;5075226;28;20115;-78
2021/12/05 06:18:20;;;;;;;65.00;27.02;;;;;;;;;;5075442;28;20036;-78
2021/12/05 06:20:46;;;;;;;63.13;26.67;;;;;;;;;;5094593;28;20032;-78
2021/12/05 06:23:11;;;;;;;63.85;27.50;;;;;;;;;;5094391;28;20521;-77
2021/12/05 06:25:38;;;;;;;71.32;28.92;;;;;;;;;;5094658;28;20464;-77
2021/12/05 06:28:09;;;;;;;62.53;25.95;;;;;;;;;;5094550;28;20024;-77
2021/12/05 06:46:20;;;;;;;71.90;27.95;;;;;;;;;;5094267;28;20050;-77
2021/12/05 06:48:46;;;;;;;68.50;27.63;;;;;;;;;;5093991;28;20028;-78
2021/12/05 06:51:13;;;;;;;68.25;27.73;;;;;;;;;;5076257;28;20139;-77
2021/12/05 06:53:39;;;;;;;65.07;26.33;;;;;;;;;;5059426;28;20035;-77
2021/12/05 06:56:05;;;;;;;74.97;31.30;;;;;;;;;;5094275;28;20142;-77
2021/12/05 06:58:32;;;;;;;86.32;32.25;;;;;;;;;;5094179;28;20075;-77
2021/12/05 07:00:58;;;;;;;78.53;28.20;;;;;;;;;;5094055;28;20476;-77
2021/12/05 07:03:23;;;;;;;79.28;30.23;;;;;;;;;;5094157;28;20024;-77
2021/12/05 07:08:16;;;;;;;77.82;31.05;;;;;;;;;;5094456;28;20463;-77
2021/12/05 07:11:08;;;;;;;72.53;27.42;;;;;;;;;;5094081;28;20457;-76
2021/12/05 07:16:25;;;;;;;82.00;35.08;;;;;;;;;;5095171;28;20101;-77
2021/12/05 07:24:17;;;;;;;65.97;28.85;;;;;;;;;;5094431;28;20111;-77
2021/12/05 07:40:29;;;;;;;73.93;29.85;;;;;;;;;;5066718;28;20055;-77
2021/12/05 07:42:56;;;;;;;86.15;34.13;;;;;;;;;;5093772;28;20180;-77
2021/12/05 07:45:28;;;;;;;117.25;46.65;;;;;;;;;;5093666;28;20065;-77
2021/12/05 07:47:55;;;;;;;82.88;33.15;;;;;;;;;;5093689;28;20024;-77
2021/12/05 07:50:30;;;;;;;79.28;32.78;;;;;;;;;;5093678;28;20114;-77
2021/12/05 07:53:04;;;;;;;80.78;31.75;;;;;;;;;;5093686;28;20121;-77
2021/12/05 07:55:36;;;;;;;72.18;29.23;;;;;;;;;;5093646;28;20089;-77
2021/12/05 08:16:47;;;;;;;67.55;28.75;;;;;;;;;;5097044;28;20034;-77
2021/12/05 08:19:13;;;;;;;67.97;27.00;;;;;;;;;;5096758;28;20032;-77
2021/12/05 08:21:38;;;;;;;64.80;28.48;;;;;;;;;;5097098;28;20040;-77
2021/12/05 08:24:04;;;;;;;65.72;26.55;;;;;;;;;;5096903;28;20477;-78
2021/12/05 08:26:34;;;;;;;69.15;27.23;;;;;;;;;;5097139;28;20026;-77
2021/12/05 09:25:20;;;;;;;90.70;36.70;;;;;;;;;;5096337;28;20046;-78
2021/12/05 09:53:20;;;;;;;81.32;31.40;;;;;;;;;;5079839;28;20034;-78
2021/12/05 10:06:43;;;;;;;80.90;30.23;;;;;;;;;;5095042;28;20077;-75
2021/12/05 10:09:24;;;;;;;68.97;28.27;;;;;;;;;;5095393;28;20081;-76
2021/12/05 10:14:54;;;;;;;70.45;29.35;;;;;;;;;;5079387;28;20067;-76
2021/12/05 10:18:02;;;;;;;83.40;31.17;;;;;;;;;;5094987;28;20139;-76
2021/12/05 10:26:41;;;;;;;61.67;26.17;;;;;;;;;;5094730;28;20109;-77
2021/12/05 10:35:42;;;;;;;60.70;26.35;;;;;;;;;;5066490;28;20111;-77
2021/12/05 10:38:48;;;;;;;64.40;27.75;;;;;;;;;;5094514;28;20413;-78
2021/12/05 10:43:44;;;;;;;62.17;26.30;;;;;;;;;;5077120;28;20138;-78
2021/12/05 10:46:14;;;;;;;66.35;28.20;;;;;;;;;;5094353;28;20027;-77
2021/12/05 10:48:46;;;;;;;60.83;26.45;;;;;;;;;;5094386;28;20024;-78
2021/12/05 10:51:17;;;;;;;66.68;28.40;;;;;;;;;;5094244;28;20039;-78
2021/12/05 10:53:46;;;;;;;69.05;29.10;;;;;;;;;;5094218;28;20024;-78
2021/12/05 10:56:19;;;;;;;63.10;27.30;;;;;;;;;;5094197;28;20077;-78
2021/12/05 10:58:45;;;;;;;60.20;23.42;;;;;;;;;;5076138;28;20028;-78
2021/12/05 11:01:25;;;;;;;53.80;23.92;;;;;;;;;;5094200;28;20031;-78
2021/12/05 11:03:54;;;;;;;58.80;24.70;;;;;;;;;;5094171;28;20032;-78
2021/12/05 11:06:25;;;;;;;56.25;25.48;;;;;;;;;;5094200;28;20039;-78
2021/12/05 11:08:56;;;;;;;50.30;22.95;;;;;;;;;;5077032;28;20024;-78
2021/12/05 11:11:21;;;;;;;;;;;;;;;;;;5094820;28;20039;-78
2021/12/05 11:13:47;;;;;;;51.72;22.35;;;;;;;;;;5094171;28;19912;-78
2021/12/05 11:16:32;;;;;;;50.28;21.60;;;;;;;;;;5094030;28;20059;-78
2021/12/05 11:18:58;;;;;;;45.70;20.40;;;;;;;;;;5093972;28;20069;-77
2021/12/05 11:21:29;;;;;;;47.75;20.58;;;;;;;;;;5093923;28;20024;-78
2021/12/05 11:24:10;;;;;;;47.85;20.95;;;;;;;;;;5093937;28;20076;-78
2021/12/05 11:26:36;;;;;;;50.03;22.13;;;;;;;;;;5093859;28;20032;-78
2021/12/05 11:29:02;;;;;;;57.42;24.13;;;;;;;;;;5093687;28;20123;-78
2021/12/05 11:31:28;;;;;;;53.40;23.50;;;;;;;;;;5075945;28;20016;-78
2021/12/05 11:33:55;;;;;;;54.67;23.15;;;;;;;;;;5095938;28;20111;-78
2021/12/05 11:36:32;;;;;;;54.15;23.10;;;;;;;;;;5097840;28;20050;-78
2021/12/05 11:38:58;;;;;;;61.58;26.33;;;;;;;;;;5079604;28;20044;-78
2021/12/05 11:41:23;;;;;;;63.25;26.08;;;;;;;;;;5097582;28;20039;-78
2021/12/05 11:43:56;;;;;;;55.03;23.15;;;;;;;;;;5097267;28;20020;-78
2021/12/05 11:46:33;;;;;;;63.65;25.60;;;;;;;;;;5097625;28;20028;-77
2021/12/05 11:49:08;;;;;;;58.65;25.98;;;;;;;;;;5097561;28;20020;-77
2021/12/05 11:51:36;;;;;;;49.70;22.10;;;;;;;;;;5079380;28;20365;-78
2021/12/05 11:54:08;;;;;;;64.43;26.73;;;;;;;;;;5097529;28;20067;-78
2021/12/05 11:56:34;;;;;;;76.35;29.60;;;;;;;;;;5097229;28;20582;-78
2021/12/05 11:59:18;;;;;;;84.65;32.35;;;;;;;;;;5097357;28;20055;-78
2021/12/05 12:01:56;;;;;;;103.13;33.42;;;;;;;;;;5097311;28;20046;-78
2021/12/05 12:04:24;;;;;;;70.45;26.83;;;;;;;;;;5097281;28;20545;-77
2021/12/05 12:07:34;;;;;;;64.15;26.13;;;;;;;;;;5097312;28;20036;-78
2021/12/05 12:10:17;;;;;;;65.68;25.88;;;;;;;;;;5015151;28;20112;-77
2021/12/05 12:12:51;;;;;;;67.90;26.70;;;;;;;;;;5094834;28;20039;-78
2021/12/05 12:15:17;;;;;;;61.65;25.48;;;;;;;;;;5097081;28;20020;-78
2021/12/05 12:17:43;;;;;;;62.85;24.77;;;;;;;;;;5079002;28;20020;-78
2021/12/05 12:20:11;;;;;;;66.20;26.42;;;;;;;;;;5078911;28;20024;-77
2021/12/05 12:22:37;;;;;;;63.92;26.85;;;;;;;;;;5079288;28;20031;-78
2021/12/05 12:25:05;;;;;;;72.43;29.77;;;;;;;;;;5078908;28;20461;-78
2021/12/05 12:27:30;;;;;;;70.05;29.60;;;;;;;;;;5096701;28;20059;-77
2021/12/05 12:29:57;;;;;;;72.43;29.65;;;;;;;;;;5096863;28;20059;-78
2021/12/05 12:32:26;;;;;;;79.07;31.52;;;;;;;;;;5062102;28;20116;-78
2021/12/05 12:35:07;;;;;;;72.13;28.83;;;;;;;;;;5078909;28;20054;-78
2021/12/05 12:37:32;;;;;;;69.38;28.20;;;;;;;;;;5096484;28;20082;-78
2021/12/05 12:39:58;;;;;;;71.88;28.58;;;;;;;;;;5061354;28;20079;-78
2021/12/05 12:42:25;;;;;;;71.97;29.73;;;;;;;;;;5096635;28;20342;-78
2021/12/05 12:45:03;;;;;;;69.22;26.55;;;;;;;;;;5095966;28;20028;-79
2021/12/05 12:47:34;;;;;;;61.30;25.58;;;;;;;;;;5096968;28;20024;-78
2021/12/05 12:50:23;;;;;;;73.72;28.25;;;;;;;;;;5096405;28;20073;-78
2021/12/05 12:52:57;;;;;;;57.08;25.35;;;;;;;;;;5096410;28;20077;-78
2021/12/05 12:55:27;;;;;;;84.38;35.67;;;;;;;;;;5101010;28;20035;-78
2021/12/05 12:57:52;;;;;;;61.70;25.58;;;;;;;;;;5101976;28;20031;-77
2021/12/05 13:00:20;;;;;;;60.90;24.67;;;;;;;;;;5103849;28;20028;-77
2021/12/05 13:05:51;;;;;;;73.22;28.08;;;;;;;;;;5101675;28;20020;-78
2021/12/05 13:11:08;;;;;;;62.72;25.05;;;;;;;;;;5096044;28;20035;-77
2021/12/05 13:13:36;;;;;;;67.82;25.67;;;;;;;;;;5096033;28;20365;-78
2021/12/05 13:16:18;;;;;;;58.85;25.52;;;;;;;;;;5095924;28;20031;-77
2021/12/05 13:18:46;;;;;;;51.83;20.27;;;;;;;;;;5095867;28;20377;-78
2021/12/05 13:21:13;;;;;;;53.15;23.33;;;;;;;;;;5061451;28;20040;-78
2021/12/05 13:23:40;;;;;;;56.95;23.05;;;;;;;;;;5095433;28;20028;-78
2021/12/05 13:26:15;;;;;;;44.58;19.48;;;;;;;;;;5095732;28;20028;-77
2021/12/05 13:28:43;;;;;;;46.75;21.48;;;;;;;;;;5077524;28;20040;-77
2021/12/05 13:31:27;;;;;;;46.55;19.60;;;;;;;;;;5095640;28;20028;-78
2021/12/05 13:34:17;;;;;;;57.45;21.65;;;;;;;;;;5096206;28;20032;-77
2021/12/05 13:36:44;;;;;;;58.42;22.55;;;;;;;;;;5095559;28;20438;-77
2021/12/05 13:39:31;;;;;;;60.15;24.63;;;;;;;;;;5095060;28;20047;-78
2021/12/05 13:42:21;;;;;;;71.28;31.83;;;;;;;;;;5095313;28;20127;-78
2021/12/05 13:44:58;;;;;;;64.88;26.10;;;;;;;;;;5095358;28;20032;-78
2021/12/05 13:47:29;;;;;;;68.82;27.30;;;;;;;;;;5095274;28;20028;-78
2021/12/05 13:49:56;;;;;;;75.10;27.58;;;;;;;;;;5077970;28;20115;-78
2021/12/05 13:52:35;;;;;;;61.78;23.73;;;;;;;;;;5094933;28;20032;-78
2021/12/05 13:55:41;;;;;;;72.20;26.20;;;;;;;;;;5095163;28;20039;-77
2021/12/05 13:58:16;;;;;;;59.75;22.48;;;;;;;;;;5094100;28;20036;-77
2021/12/05 14:01:12;;;;;;;72.47;29.98;;;;;;;;;;5095030;28;20028;-78
2021/12/05 14:03:45;;;;;;;80.45;27.27;;;;;;;;;;5083993;28;20036;-78
2021/12/05 14:06:40;;;;;;;58.50;22.30;;;;;;;;;;5095063;28;20110;-77
2021/12/05 14:09:13;;;;;;;78.47;28.17;;;;;;;;;;5094954;28;20079;-77
2021/12/05 14:11:58;;;;;;;68.53;23.83;;;;;;;;;;5094803;28;20028;-78
2021/12/05 14:14:35;;;;;;;49.67;21.42;;;;;;;;;;5078593;28;20695;-78
2021/12/05 14:17:03;;;;;;;59.55;25.73;;;;;;;;;;5077568;28;20509;-78
2021/12/05 14:19:30;;;;;;;65.90;24.30;;;;;;;;;;5076989;28;20058;-78
2021/12/05 14:21:58;;;;;;;67.40;25.20;;;;;;;;;;5043453;28;20438;-78
2021/12/05 14:24:26;;;;;;;63.95;25.83;;;;;;;;;;5094669;28;20028;-78
2021/12/05 14:26:55;;;;;;;66.53;27.42;;;;;;;;;;5076941;28;20067;-78
2021/12/05 14:29:23;;;;;;;67.40;25.23;;;;;;;;;;5094580;28;20024;-78
2021/12/05 14:32:04;;;;;;;65.80;25.38;;;;;;;;;;5076790;28;20445;-78
2021/12/05 14:34:30;;;;;;;63.35;23.50;;;;;;;;;;5094507;28;20415;-78
2021/12/05 14:37:01;;;;;;;74.95;25.92;;;;;;;;;;5094197;28;20016;-77
2021/12/05 14:39:29;;;;;;;71.85;27.58;;;;;;;;;;5094546;28;20051;-79
2021/12/05 14:41:58;;;;;;;69.88;27.48;;;;;;;;;;5094399;28;20039;-78
2021/12/05 14:44:25;;;;;;;71.38;27.35;;;;;;;;;;5094428;28;20023;-77
2021/12/05 14:46:55;;;;;;;97.68;36.45;;;;;;;;;;5094310;28;20024;-77
2021/12/05 14:49:25;;;;;;;80.05;29.27;;;;;;;;;;5094362;28;20033;-78
2021/12/05 14:51:51;;;;;;;70.90;25.80;;;;;;;;;;5077025;28;20060;-78
2021/12/05 14:54:19;;;;;;;77.70;27.52;;;;;;;;;;5076259;28;20024;-78
2021/12/05 14:56:44;;;;;;;72.50;27.10;;;;;;;;;;5094247;28;20031;-78
2021/12/05 14:59:12;;;;;;;64.35;25.42;;;;;;;;;;5076403;28;20028;-78
2021/12/05 15:04:31;;;;;;;83.80;30.85;;;;;;;;;;5094235;28;20109;-77
2021/12/05 15:06:57;;;;;;;87.18;33.67;;;;;;;;;;5076106;28;20024;-78
2021/12/05 15:09:38;;;;;;;94.30;37.90;;;;;;;;;;5097130;28;20032;-77
2021/12/05 15:12:05;;;;;;;;;;;;;;;;;;5081760;28;20024;-77
2021/12/05 15:14:30;;;;;;;95.55;34.25;;;;;;;;;;5098441;28;19912;-77
2021/12/05 15:16:59;;;;;;;79.63;33.35;;;;;;;;;;5080122;28;20027;-78
2021/12/05 15:19:25;;;;;;;91.97;36.70;;;;;;;;;;5063420;28;20032;-78
2021/12/05 15:21:50;;;;;;;93.97;33.85;;;;;;;;;;5080097;28;20047;-77
2021/12/05 15:24:17;;;;;;;91.18;33.65;;;;;;;;;;5098092;28;20032;-78
2021/12/05 15:26:42;;;;;;;92.68;31.45;;;;;;;;;;5080377;28;20109;-77
2021/12/05 15:29:08;;;;;;;82.22;31.10;;;;;;;;;;5079984;28;20062;-77
2021/12/05 15:31:38;;;;;;;84.38;29.45;;;;;;;;;;5079919;28;20036;-78
2021/12/05 15:34:25;;;;;;;76.93;28.85;;;;;;;;;;5097688;28;21050;-78
2021/12/05 15:36:51;;;;;;;84.75;31.83;;;;;;;;;;5080096;28;20028;-77
2021/12/05 15:39:20;;;;;;;85.05;31.90;;;;;;;;;;5097700;28;20369;-78
2021/12/05 15:41:48;;;;;;;88.47;34.03;;;;;;;;;;5080062;28;20488;-79
2021/12/05 15:44:35;;;;;;;94.80;36.90;;;;;;;;;;5097726;28;20028;-78
2021/12/05 15:47:12;;;;;;;106.32;39.58;;;;;;;;;;5097646;28;20050;-78
2021/12/05 15:49:44;;;;;;;116.35;45.30;;;;;;;;;;5080778;28;20464;-78
2021/12/05 15:52:09;;;;;;;92.25;38.67;;;;;;;;;;5079920;28;20031;-78
2021/12/05 15:54:37;;;;;;;97.50;41.20;;;;;;;;;;5097541;28;20221;-78
2021/12/05 15:57:21;;;;;;;91.15;32.53;;;;;;;;;;5097782;28;20028;-78
2021/12/05 15:59:46;;;;;;;187.27;52.03;;;;;;;;;;5081761;28;20041;-77
2021/12/05 16:02:15;;;;;;;119.53;39.35;;;;;;;;;;5079215;28;20036;-77
2021/12/05 16:04:40;;;;;;;101.35;35.97;;;;;;;;;;5079502;28;20101;-77
2021/12/05 16:07:10;;;;;;;96.40;36.50;;;;;;;;;;5097310;28;20401;-78
2021/12/05 16:09:36;;;;;;;97.35;36.83;;;;;;;;;;5079556;28;20027;-78
2021/12/05 16:12:16;;;;;;;95.47;37.47;;;;;;;;;;5079120;28;20028;-78
2021/12/05 16:14:44;;;;;;;100.28;41.45;;;;;;;;;;5046358;28;20051;-77
2021/12/05 16:17:21;;;;;;;121.20;46.92;;;;;;;;;;5078757;28;20051;-78
2021/12/05 16:20:40;;;;;;;97.70;35.28;;;;;;;;;;5095925;28;20115;-78
2021/12/05 16:23:18;;;;;;;98.68;34.60;;;;;;;;;;5053115;28;20093;-77
2021/12/05 16:25:56;;;;;;;95.88;34.40;;;;;;;;;;5079286;28;20126;-78
2021/12/05 16:28:24;;;;;;;90.78;33.65;;;;;;;;;;5096868;28;20094;-78
2021/12/05 16:30:55;;;;;;;88.82;31.55;;;;;;;;;;5078986;28;20464;-77
2021/12/05 16:33:20;;;;;;;79.72;30.08;;;;;;;;;;5062397;28;20028;-78
2021/12/05 16:35:53;;;;;;;78.30;29.58;;;;;;;;;;5096716;28;20426;-78
2021/12/05 16:38:18;;;;;;;85.15;31.75;;;;;;;;;;5096555;28;20032;-76
2021/12/05 16:40:59;;;;;;;84.72;33.08;;;;;;;;;;5096493;28;20433;-78
2021/12/05 16:43:24;;;;;;;91.05;35.47;;;;;;;;;;5096646;28;20122;-78
2021/12/05 16:45:55;;;;;;;73.28;26.98;;;;;;;;;;5096455;28;20066;-78
2021/12/05 16:48:20;;;;;;;75.25;27.65;;;;;;;;;;5096434;28;20039;-78
2021/12/05 16:50:46;;;;;;;88.10;29.05;;;;;;;;;;5096402;28;20036;-78
2021/12/05 16:53:13;;;;;;;84.05;29.15;;;;;;;;;;5078436;28;20028;-77
2021/12/05 16:55:44;;;;;;;83.07;28.33;;;;;;;;;;5096644;28;20015;-78
2021/12/05 16:58:17;;;;;;;80.82;26.08;;;;;;;;;;5079074;28;20512;-77
2021/12/05 17:00:49;;;;;;;92.22;29.77;;;;;;;;;;5078961;28;20036;-77
2021/12/05 17:03:23;;;;;;;86.78;32.10;;;;;;;;;;5096131;28;20115;-77
2021/12/05 17:05:50;;;;;;;98.72;33.28;;;;;;;;;;5078295;28;20028;-77
2021/12/05 17:08:22;;;;;;;80.40;30.70;;;;;;;;;;5096137;28;20028;-78
2021/12/05 17:10:53;;;;;;;92.47;34.20;;;;;;;;;;5096048;28;20028;-78
2021/12/05 17:13:22;;;;;;;70.22;26.10;;;;;;;;;;5078061;28;20039;-78
2021/12/05 17:15:59;;;;;;;77.25;27.80;;;;;;;;;;5077803;28;20032;-77
2021/12/05 17:18:27;;;;;;;79.70;26.60;;;;;;;;;;5095878;28;20028;-78
2021/12/05 17:20:56;;;;;;;70.53;23.70;;;;;;;;;;5077591;28;20043;-77
2021/12/05 17:23:24;;;;;;;98.45;32.33;;;;;;;;;;5095795;28;20032;-77
2021/12/05 17:25:52;;;;;;;92.78;35.47;;;;;;;;;;5077966;28;20038;-78
2021/12/05 17:28:37;;;;;;;87.68;34.33;;;;;;;;;;5077677;28;20030;-78
2021/12/05 17:31:05;;;;;;;75.50;27.25;;;;;;;;;;5079404;28;20035;-78
2021/12/05 17:33:36;;;;;;;69.07;24.20;;;;;;;;;;5095596;28;20069;-78
2021/12/05 17:36:26;;;;;;;76.70;24.60;;;;;;;;;;5095555;28;20024;-78
2021/12/05 17:39:11;;;;;;;68.27;22.27;;;;;;;;;;5095277;28;20436;-77
2021/12/05 17:41:37;;;;;;;70.63;26.30;;;;;;;;;;5095613;28;20020;-77
2021/12/05 17:44:03;;;;;;;71.50;25.88;;;;;;;;;;5078117;28;20461;-77
2021/12/05 17:46:30;;;;;;;60.45;20.13;;;;;;;;;;5097121;28;20024;-79
2021/12/05 17:48:56;;;;;;;61.05;23.17;;;;;;;;;;5095316;28;20023;-78
2021/12/05 17:51:26;;;;;;;70.72;23.35;;;;;;;;;;5095529;28;20016;-79
2021/12/05 17:53:55;;;;;;;64.80;22.38;;;;;;;;;;5095254;28;20462;-79
2021/12/05 17:56:36;;;;;;;64.47;21.95;;;;;;;;;;5095609;28;20047;-76
2021/12/05 17:59:12;;;;;;;69.40;23.77;;;;;;;;;;5094858;28;20028;-79
2021/12/05 18:04:21;;;;;;;72.40;23.40;;;;;;;;;;5095072;28;20388;-78
2021/12/05 18:06:47;;;;;;;72.93;24.33;;;;;;;;;;5095054;28;20118;-77
2021/12/05 18:09:12;;;;;;;84.75;27.48;;;;;;;;;;5077055;28;20115;-78
2021/12/05 18:11:38;;;;;;;86.28;26.75;;;;;;;;;;5094869;28;20081;-78
2021/12/05 18:14:04;;;;;;;86.93;27.30;;;;;;;;;;5076534;28;20028;-77
2021/12/05 18:16:31;;;;;;;81.50;25.50;;;;;;;;;;5094844;28;20024;-77
2021/12/05 18:19:03;;;;;;;81.13;24.88;;;;;;;;;;5076897;28;20024;-77
2021/12/05 18:21:30;;;;;;;70.80;21.63;;;;;;;;;;5076895;28;20039;-81
2021/12/05 18:23:56;;;;;;;71.10;21.42;;;;;;;;;;5076541;28;20074;-78
2021/12/05 18:26:22;;;;;;;83.00;22.05;;;;;;;;;;5076943;28;20103;-78
2021/12/05 18:28:49;;;;;;;75.13;24.27;;;;;;;;;;5094393;28;20480;-78
2021/12/05 18:31:19;;;;;;;78.32;26.25;;;;;;;;;;5094870;28;20020;-77
2021/12/05 18:33:47;;;;;;;68.95;19.80;;;;;;;;;;5076985;28;20102;-77
2021/12/05 18:36:13;;;;;;;75.25;21.38;;;;;;;;;;5076944;28;20114;-78
2021/12/05 18:38:39;;;;;;;67.40;21.75;;;;;;;;;;5076454;28;20193;-78
2021/12/05 18:41:09;;;;;;;71.88;24.38;;;;;;;;;;5076656;28;20028;-77
2021/12/05 18:43:37;;;;;;;78.18;25.15;;;;;;;;;;5093546;28;20035;-78
2021/12/05 18:46:04;;;;;;;83.43;26.70;;;;;;;;;;5077213;28;20105;-78
2021/12/05 18:48:30;;;;;;;68.40;23.48;;;;;;;;;;5094334;28;20019;-77
2021/12/05 18:50:55;;;;;;;81.03;26.77;;;;;;;;;;5094368;28;20357;-78
2021/12/05 18:53:21;;;;;;;76.22;26.38;;;;;;;;;;5076274;28;20031;-77
2021/12/05 18:55:47;;;;;;;66.97;22.48;;;;;;;;;;5094259;28;20541;-78
2021/12/05 18:58:13;;;;;;;72.70;24.55;;;;;;;;;;5076022;28;20035;-78
2021/12/05 19:06:21;;;;;;;73.47;26.70;;;;;;;;;;5094212;28;20074;-78
2021/12/05 19:11:53;;;;;;;64.38;22.52;;;;;;;;;;5093888;28;20476;-77
2021/12/05 19:14:52;;;;;;;66.68;22.10;;;;;;;;;;5079500;28;20020;-77
2021/12/05 19:17:27;;;;;;;54.08;19.15;;;;;;;;;;5049737;28;20044;-78
2021/12/05 19:19:54;;;;;;;82.40;27.65;;;;;;;;;;5094071;28;20115;-77
2021/12/05 19:22:24;;;;;;;69.90;24.55;;;;;;;;;;5075906;28;20159;-78
2021/12/05 19:24:50;;;;;;;74.40;26.60;;;;;;;;;;5094069;28;20440;-78
2021/12/05 19:27:16;;;;;;;89.15;27.98;;;;;;;;;;5093729;28;20346;-78
2021/12/05 19:29:41;;;;;;;85.82;28.75;;;;;;;;;;5093975;28;20453;-78
2021/12/05 19:32:07;;;;;;;81.35;26.55;;;;;;;;;;5093942;28;20036;-78
2021/12/05 19:34:32;;;;;;;83.47;26.25;;;;;;;;;;5075946;28;20028;-79
2021/12/05 19:36:58;;;;;;;71.25;25.52;;;;;;;;;;5075827;28;20036;-78
2021/12/05 19:39:25;;;;;;;69.07;25.27;;;;;;;;;;5093728;28;20056;-78
2021/12/05 19:41:51;;;;;;;80.35;28.92;;;;;;;;;;5093560;28;20438;-78
2021/12/05 19:44:17;;;;;;;76.30;26.02;;;;;;;;;;5059182;28;20028;-78
2021/12/05 19:46:42;;;;;;;58.25;21.25;;;;;;;;;;5093978;28;20438;-78
2021/12/05 19:49:08;;;;;;;69.78;23.27;;;;;;;;;;5093874;28;20028;-78
2021/12/05 19:51:35;;;;;;;59.47;20.60;;;;;;;;;;5075735;28;20044;-78
2021/12/05 19:54:01;;;;;;;64.15;21.88;;;;;;;;;;5094447;28;20354;-78
2021/12/05 19:56:27;;;;;;;64.85;23.42;;;;;;;;;;5097317;28;20020;-79
2021/12/05 19:58:53;;;;;;;82.38;29.42;;;;;;;;;;5097419;28;20453;-78
2021/12/05 20:01:19;;;;;;;94.53;31.17;;;;;;;;;;5097400;28;20122;-78
2021/12/05 20:03:44;;;;;;;75.72;25.65;;;;;;;;;;5097361;28;20089;-78
2021/12/05 20:06:10;;;;;;;89.45;29.85;;;;;;;;;;5079377;28;20028;-78
2021/12/05 20:08:36;;;;;;;82.32;26.35;;;;;;;;;;5079220;28;20035;-79
2021/12/05 20:11:02;;;;;;;71.93;22.38;;;;;;;;;;5097291;28;20490;-78
2021/12/05 20:13:29;;;;;;;84.13;26.23;;;;;;;;;;5079223;28;20028;-78
2021/12/05 20:15:55;;;;;;;74.15;23.83;;;;;;;;;;5097168;28;20032;-79